Time;durP1;ratioP1;P1;durP2;ratioP2;P2;SDS_P1;SDS_P2;PMS_P1;PMS_P2;Temp;Humidity;BMP_temperature;BMP_pressure;BME280_temperature;BME280_humidity;BME280_pressure;Samples;Min_cycle;Max_cycle;Signal;HPM_P1;HPM_P2
2021/07/03 00:00:48;;;;;;;11.90;10.70;;;19.50;72.50;;;;;;5093561;28;20933;-66
2021/07/03 00:03:16;;;;;;;11.03;9.93;;;19.50;72.50;;;;;;5093682;28;20470;-66
2021/07/03 00:05:43;;;;;;;9.33;8.27;;;19.40;72.00;;;;;;5093530;28;20522;-66
2021/07/03 00:08:10;;;;;;;8.77;8.00;;;19.30;71.70;;;;;;5093680;28;20476;-66
2021/07/03 00:10:37;;;;;;;10.50;8.93;;;19.30;71.60;;;;;;5093961;28;20781;-66
2021/07/03 00:13:03;;;;;;;9.43;8.53;;;19.20;71.30;;;;;;5093367;28;20946;-66
2021/07/03 00:15:30;;;;;;;9.40;7.70;;;19.20;71.20;;;;;;5093641;28;20473;-66
2021/07/03 00:17:57;;;;;;;8.87;8.00;;;19.10;71.20;;;;;;5093764;28;20467;-67
2021/07/03 00:20:26;;;;;;;9.17;8.27;;;19.10;71.40;;;;;;5093646;28;20885;-66
2021/07/03 00:22:54;;;;;;;10.20;8.30;;;19.00;71.30;;;;;;5093587;28;20479;-66
2021/07/03 00:25:21;;;;;;;8.43;7.50;;;19.00;71.30;;;;;;5093568;28;20451;-66
2021/07/03 00:27:48;;;;;;;9.67;8.77;;;18.90;71.40;;;;;;5093450;28;20477;-66
2021/07/03 00:30:15;;;;;;;10.40;9.40;;;18.90;72.00;;;;;;5094401;28;20439;-66
2021/07/03 00:32:42;;;;;;;11.90;10.80;;;18.90;72.40;;;;;;5093466;28;20530;-67
2021/07/03 00:35:10;;;;;;;10.37;9.50;;;18.80;72.40;;;;;;5093594;28;20793;-67
2021/07/03 00:37:38;;;;;;;10.70;9.60;;;18.80;72.30;;;;;;5093471;28;20464;-68
2021/07/03 00:40:06;;;;;;;10.80;8.63;;;18.80;72.40;;;;;;5093476;28;20428;-67
2021/07/03 00:42:33;;;;;;;10.87;9.77;;;18.80;72.40;;;;;;5092990;28;21000;-67
2021/07/03 00:45:00;;;;;;;12.47;11.20;;;18.70;72.40;;;;;;5093347;28;20459;-67
2021/07/03 00:47:26;;;;;;;10.20;9.20;;;18.70;72.40;;;;;;5093402;28;20459;-67
2021/07/03 00:49:53;;;;;;;11.57;10.20;;;18.70;72.50;;;;;;5096082;28;20933;-67
2021/07/03 00:52:20;;;;;;;12.00;10.87;;;18.70;72.50;;;;;;5097234;28;20530;-67
2021/07/03 00:54:49;;;;;;;10.67;9.47;;;18.70;72.50;;;;;;5097399;28;20428;-67
2021/07/03 00:57:17;;;;;;;11.40;10.30;;;18.70;72.70;;;;;;5096836;28;20459;-67
2021/07/03 00:59:45;;;;;;;11.60;10.40;;;18.60;72.90;;;;;;5097183;28;20566;-67
2021/07/03 01:02:15;;;;;;;10.53;9.37;;;18.60;73.10;;;;;;5096723;28;20926;-67
2021/07/03 01:04:42;;;;;;;11.27;9.67;;;18.60;73.10;;;;;;5096824;28;20443;-67
2021/07/03 01:07:10;;;;;;;11.80;10.70;;;18.60;73.20;;;;;;5096748;28;20478;-67
2021/07/03 01:09:37;;;;;;;11.30;10.20;;;18.50;73.10;;;;;;5096879;28;20451;-67
2021/07/03 01:12:07;;;;;;;11.40;10.30;;;18.50;73.40;;;;;;5096861;28;20447;-67
2021/07/03 01:14:40;;;;;;;10.33;9.27;;;18.50;73.60;;;;;;5096760;28;20443;-67
2021/07/03 01:17:06;;;;;;;8.60;7.80;;;18.40;73.50;;;;;;5096407;28;20466;-67
2021/07/03 01:19:33;;;;;;;8.77;7.97;;;18.40;73.50;;;;;;5096697;28;20450;-67
2021/07/03 01:22:01;;;;;;;8.47;7.70;;;18.30;73.50;;;;;;5096707;28;20440;-67
2021/07/03 01:24:28;;;;;;;8.17;7.47;;;18.30;73.60;;;;;;5096563;28;20822;-67
2021/07/03 01:26:56;;;;;;;8.00;7.20;;;18.30;73.50;;;;;;5096513;28;20463;-67
2021/07/03 01:29:25;;;;;;;9.47;7.80;;;18.20;73.20;;;;;;5096559;28;20443;-67
2021/07/03 01:31:55;;;;;;;9.47;8.47;;;18.20;73.20;;;;;;5096451;28;20443;-67
2021/07/03 01:34:24;;;;;;;10.30;9.20;;;18.20;73.40;;;;;;5096535;28;20420;-67
2021/07/03 01:36:51;;;;;;;12.27;9.77;;;18.10;73.60;;;;;;5096050;28;20497;-67
2021/07/03 01:39:19;;;;;;;11.20;9.73;;;18.10;73.80;;;;;;5096323;28;20439;-67
2021/07/03 01:41:46;;;;;;;11.67;10.53;;;18.00;74.10;;;;;;5096293;28;20806;-67
2021/07/03 01:44:13;;;;;;;11.80;10.60;;;18.00;73.90;;;;;;5095876;28;20483;-67
2021/07/03 01:46:40;;;;;;;10.70;9.67;;;18.00;74.10;;;;;;5096140;28;20566;-67
2021/07/03 01:49:08;;;;;;;11.63;10.50;;;18.00;74.50;;;;;;5096151;28;20447;-67
2021/07/03 01:51:35;;;;;;;12.13;10.67;;;17.90;73.80;;;;;;5096075;28;20444;-67
2021/07/03 01:54:02;;;;;;;14.60;11.03;;;18.00;74.10;;;;;;5096115;28;20432;-67
2021/07/03 01:56:30;;;;;;;11.93;10.73;;;17.90;74.30;;;;;;5095937;28;20443;-67
2021/07/03 01:58:57;;;;;;;10.73;9.63;;;17.90;74.60;;;;;;5095790;28;20813;-67
2021/07/03 02:01:25;;;;;;;12.53;10.00;;;17.90;74.70;;;;;;5095861;28;20448;-67
2021/07/03 02:03:51;;;;;;;14.93;10.63;;;17.90;75.00;;;;;;5095780;28;20481;-67
2021/07/03 02:06:18;;;;;;;11.10;10.10;;;17.90;75.20;;;;;;5095687;28;20471;-67
2021/07/03 02:08:45;;;;;;;11.47;10.37;;;17.90;75.10;;;;;;5095802;28;20468;-67
2021/07/03 02:11:12;;;;;;;12.67;11.43;;;17.80;75.10;;;;;;5095725;28;20444;-67
2021/07/03 02:13:40;;;;;;;11.87;10.40;;;17.80;75.40;;;;;;5095713;28;20440;-67
2021/07/03 02:16:06;;;;;;;11.50;10.20;;;17.80;75.50;;;;;;5095677;28;20440;-67
2021/07/03 02:18:33;;;;;;;11.93;10.73;;;17.80;75.60;;;;;;5095525;28;20471;-67
2021/07/03 02:21:00;;;;;;;11.33;10.20;;;17.80;75.60;;;;;;5095522;28;20455;-67
2021/07/03 02:23:27;;;;;;;13.03;11.70;;;17.80;75.60;;;;;;5095446;28;20829;-67
2021/07/03 02:25:54;;;;;;;11.50;10.37;;;17.80;75.60;;;;;;5095427;28;20447;-67
2021/07/03 02:28:21;;;;;;;12.13;11.00;;;17.80;75.70;;;;;;5095337;28;20471;-67
2021/07/03 02:30:49;;;;;;;11.40;10.33;;;17.80;75.60;;;;;;5095347;28;20444;-67
2021/07/03 02:33:16;;;;;;;16.30;11.97;;;17.70;75.70;;;;;;5095245;28;20492;-67
2021/07/03 02:35:42;;;;;;;11.67;10.23;;;17.70;76.00;;;;;;5095218;28;20452;-67
2021/07/03 02:38:10;;;;;;;14.97;10.83;;;17.70;76.10;;;;;;5095126;28;20471;-67
2021/07/03 02:40:36;;;;;;;11.87;10.77;;;17.70;76.10;;;;;;5095161;28;20447;-67
2021/07/03 02:43:03;;;;;;;11.87;10.60;;;17.70;76.10;;;;;;5094732;28;20478;-68
2021/07/03 02:45:30;;;;;;;11.47;10.27;;;17.70;76.00;;;;;;5095033;28;20443;-67
2021/07/03 02:47:58;;;;;;;12.47;10.93;;;17.70;75.90;;;;;;5094933;28;20467;-67
2021/07/03 02:50:25;;;;;;;12.40;11.30;;;17.70;76.20;;;;;;5094934;28;20443;-67
2021/07/03 02:52:51;;;;;;;12.33;11.13;;;17.60;76.30;;;;;;5094878;28;20451;-67
2021/07/03 02:55:18;;;;;;;13.53;11.50;;;17.60;76.40;;;;;;5094844;28;20444;-67
2021/07/03 02:57:45;;;;;;;12.97;11.67;;;17.60;76.60;;;;;;5094748;28;20468;-67
2021/07/03 03:00:14;;;;;;;13.10;11.80;;;17.60;76.70;;;;;;5094737;28;20444;-67
2021/07/03 03:02:41;;;;;;;13.20;11.90;;;17.60;76.80;;;;;;5094432;28;20450;-67
2021/07/03 03:05:11;;;;;;;14.17;12.73;;;17.60;77.00;;;;;;5094525;28;20482;-67
2021/07/03 03:07:38;;;;;;;12.60;11.40;;;17.60;76.90;;;;;;5094796;28;20831;-67
2021/07/03 03:10:08;;;;;;;14.10;12.70;;;17.50;76.80;;;;;;5094294;28;20941;-67
2021/07/03 03:12:35;;;;;;;13.23;11.93;;;17.50;76.90;;;;;;5094969;28;20447;-67
2021/07/03 03:15:03;;;;;;;12.33;11.17;;;17.50;77.00;;;;;;5094204;28;20536;-67
2021/07/03 03:17:30;;;;;;;13.03;11.83;;;17.60;77.20;;;;;;5094413;28;20496;-67
2021/07/03 03:19:57;;;;;;;13.07;11.87;;;17.50;77.30;;;;;;5094427;28;20451;-67
2021/07/03 03:22:25;;;;;;;13.53;12.23;;;17.50;77.60;;;;;;5094401;28;20450;-67
2021/07/03 03:24:51;;;;;;;15.83;14.33;;;17.50;77.70;;;;;;5093969;28;20989;-67
2021/07/03 03:27:18;;;;;;;14.97;12.13;;;17.50;78.60;;;;;;5094261;28;20467;-67
2021/07/03 03:29:45;;;;;;;14.53;13.20;;;17.50;77.90;;;;;;5093920;28;20451;-67
2021/07/03 03:32:11;;;;;;;14.17;12.57;;;17.50;78.10;;;;;;5094204;28;20447;-67
2021/07/03 03:34:38;;;;;;;17.23;13.23;;;17.50;77.80;;;;;;5094172;28;20432;-67
2021/07/03 03:37:05;;;;;;;13.97;12.57;;;17.50;77.70;;;;;;5094074;28;20864;-67
2021/07/03 03:39:33;;;;;;;13.30;11.87;;;17.50;77.60;;;;;;5094074;28;20443;-67
2021/07/03 03:42:00;;;;;;;14.30;12.73;;;17.50;77.70;;;;;;5094039;28;20466;-67
2021/07/03 03:44:27;;;;;;;14.23;12.80;;;17.50;77.80;;;;;;5093615;28;20999;-67
2021/07/03 03:46:53;;;;;;;16.43;14.73;;;17.50;77.90;;;;;;5093902;28;20470;-67
2021/07/03 03:49:21;;;;;;;18.83;15.70;;;17.50;78.30;;;;;;5093926;28;20534;-67
2021/07/03 03:51:48;;;;;;;16.80;15.00;;;17.50;78.80;;;;;;5095007;28;20440;-67
2021/07/03 03:54:15;;;;;;;21.13;18.97;;;17.60;79.50;;;;;;5093877;28;20443;-67
2021/07/03 03:56:43;;;;;;;20.83;18.30;;;17.60;80.00;;;;;;5093752;28;20451;-67
2021/07/03 03:59:11;;;;;;;20.03;17.00;;;17.60;80.80;;;;;;5093461;28;20840;-67
2021/07/03 04:01:38;;;;;;;22.70;18.60;;;17.60;81.40;;;;;;5093743;28;20448;-67
2021/07/03 04:04:05;;;;;;;22.60;18.67;;;17.70;82.00;;;;;;5093653;28;20479;-67
2021/07/03 04:06:32;;;;;;;22.13;18.43;;;17.70;82.40;;;;;;5093411;28;20455;-67
2021/07/03 04:08:59;;;;;;;19.90;16.60;;;17.70;82.60;;;;;;5093657;28;20440;-67
2021/07/03 04:11:26;;;;;;;15.43;13.83;;;17.70;83.10;;;;;;5093614;28;20454;-67
2021/07/03 04:13:54;;;;;;;21.13;17.67;;;17.70;83.40;;;;;;5093625;28;20450;-67
2021/07/03 04:16:21;;;;;;;19.27;17.20;;;17.70;83.50;;;;;;5093512;28;20474;-67
2021/07/03 04:18:47;;;;;;;19.53;16.40;;;17.70;83.70;;;;;;5093596;28;20448;-67
2021/07/03 04:21:14;;;;;;;18.27;14.57;;;17.60;83.90;;;;;;5093564;28;20451;-67
2021/07/03 04:23:41;;;;;;;18.50;16.13;;;17.70;84.40;;;;;;5096329;28;20488;-67
2021/07/03 04:26:07;;;;;;;16.63;15.03;;;17.70;84.60;;;;;;5097719;28;20450;-67
2021/07/03 04:28:34;;;;;;;20.97;17.40;;;17.70;84.70;;;;;;5097711;28;20470;-67
2021/07/03 04:31:02;;;;;;;19.97;15.87;;;17.70;84.90;;;;;;5097655;28;20443;-67
2021/07/03 04:33:29;;;;;;;18.23;16.07;;;17.70;85.20;;;;;;5097316;28;20447;-67
2021/07/03 04:35:56;;;;;;;18.70;16.50;;;17.70;85.40;;;;;;5097533;28;20458;-67
2021/07/03 04:38:22;;;;;;;18.30;16.60;;;17.70;85.80;;;;;;5098091;28;20475;-67
2021/07/03 04:40:49;;;;;;;21.63;16.03;;;17.70;86.00;;;;;;5097513;28;20531;-67
2021/07/03 04:43:16;;;;;;;20.43;15.97;;;17.80;86.30;;;;;;5097353;28;20455;-67
2021/07/03 04:45:42;;;;;;;18.90;16.87;;;17.80;86.70;;;;;;5097419;28;20420;-67
2021/07/03 04:48:11;;;;;;;20.30;16.70;;;17.80;87.00;;;;;;5096966;28;21003;-67
2021/07/03 04:50:37;;;;;;;16.63;15.03;;;17.80;86.70;;;;;;5097312;28;20439;-67
2021/07/03 04:53:05;;;;;;;14.93;13.43;;;17.90;86.80;;;;;;5097243;28;20450;-67
2021/07/03 04:55:32;;;;;;;15.07;13.47;;;17.90;86.70;;;;;;5097372;28;20504;-67
2021/07/03 04:57:59;;;;;;;17.43;15.27;;;18.00;87.00;;;;;;5097137;28;20496;-67
2021/07/03 05:00:25;;;;;;;16.90;14.43;;;18.00;87.10;;;;;;5097279;28;20853;-67
2021/07/03 05:02:52;;;;;;;17.10;15.00;;;18.00;86.50;;;;;;5097227;28;20443;-67
2021/07/03 05:05:20;;;;;;;17.63;15.70;;;18.10;86.80;;;;;;5096795;28;20470;-67
2021/07/03 05:07:47;;;;;;;20.73;16.20;;;18.10;86.90;;;;;;5096672;28;20480;-67
2021/07/03 05:10:14;;;;;;;15.20;13.70;;;18.20;86.80;;;;;;5097028;28;20517;-67
2021/07/03 05:12:41;;;;;;;18.47;16.23;;;18.20;86.80;;;;;;5096808;28;20450;-67
2021/07/03 05:15:08;;;;;;;16.70;14.97;;;18.20;86.50;;;;;;5096909;28;20444;-67
2021/07/03 05:17:35;;;;;;;18.97;16.20;;;18.20;86.80;;;;;;5096513;28;20865;-67
2021/07/03 05:20:01;;;;;;;16.77;15.13;;;18.20;86.80;;;;;;5096846;28;20445;-67
2021/07/03 05:22:29;;;;;;;17.80;14.80;;;18.30;87.30;;;;;;5096970;28;20447;-67
2021/07/03 05:24:56;;;;;;;19.43;16.27;;;18.30;87.30;;;;;;5097046;28;20490;-67
2021/07/03 05:27:23;;;;;;;16.83;15.27;;;18.40;87.30;;;;;;5096293;28;21007;-67
2021/07/03 05:29:49;;;;;;;18.90;15.20;;;18.40;87.10;;;;;;5096258;28;20964;-67
2021/07/03 05:32:16;;;;;;;20.17;17.00;;;18.50;86.90;;;;;;5096468;28;20443;-67
2021/07/03 05:34:43;;;;;;;20.03;16.80;;;18.50;86.80;;;;;;5095848;28;20435;-67
2021/07/03 05:37:10;;;;;;;16.37;14.23;;;18.60;86.90;;;;;;5096367;28;20468;-67
2021/07/03 05:39:38;;;;;;;18.50;16.13;;;18.60;86.90;;;;;;5097202;28;20448;-68
2021/07/03 05:42:05;;;;;;;18.47;16.23;;;18.70;87.20;;;;;;5096300;28;20439;-67
2021/07/03 05:44:31;;;;;;;17.07;15.27;;;18.80;87.30;;;;;;5095853;28;20478;-67
2021/07/03 05:46:58;;;;;;;15.30;13.70;;;18.80;87.00;;;;;;5096161;28;20475;-67
2021/07/03 05:49:25;;;;;;;18.20;15.07;;;18.80;87.00;;;;;;5096209;28;20448;-67
2021/07/03 05:51:52;;;;;;;15.60;13.93;;;18.90;87.00;;;;;;5096111;28;20475;-67
2021/07/03 05:54:19;;;;;;;22.23;14.30;;;18.90;87.20;;;;;;5096112;28;20466;-67
2021/07/03 05:56:49;;;;;;;20.63;16.47;;;19.00;87.10;;;;;;5095677;28;20534;-67
2021/07/03 05:59:16;;;;;;;17.70;15.80;;;19.10;86.80;;;;;;5096037;28;20523;-67
2021/07/03 06:01:43;;;;;;;17.83;15.93;;;19.10;86.40;;;;;;5095951;28;20443;-67
2021/07/03 06:04:09;;;;;;;15.80;14.30;;;19.20;86.40;;;;;;5095854;28;20463;-67
2021/07/03 06:06:36;;;;;;;16.47;14.40;;;19.30;86.70;;;;;;5095631;28;20513;-67
2021/07/03 06:09:03;;;;;;;18.13;15.60;;;19.30;86.60;;;;;;5095499;28;20804;-67
2021/07/03 06:11:30;;;;;;;17.37;15.37;;;19.40;86.40;;;;;;5095750;28;20443;-67
2021/07/03 06:14:00;;;;;;;17.23;15.50;;;19.50;86.40;;;;;;5095757;28;20424;-67
2021/07/03 06:16:27;;;;;;;16.53;14.73;;;19.60;85.70;;;;;;5095851;28;20450;-67
2021/07/03 06:18:55;;;;;;;19.60;17.20;;;19.70;85.40;;;;;;5095643;28;20510;-67
2021/07/03 06:21:22;;;;;;;18.70;16.70;;;19.80;84.80;;;;;;5095551;28;20450;-67
2021/07/03 06:23:49;;;;;;;19.63;15.10;;;19.90;84.40;;;;;;5095507;28;20431;-67
2021/07/03 06:26:15;;;;;;;15.37;13.77;;;20.00;84.00;;;;;;5095165;28;20444;-67
2021/07/03 06:28:42;;;;;;;17.83;15.33;;;20.10;83.50;;;;;;5095023;28;20466;-67
2021/07/03 06:31:10;;;;;;;18.53;14.70;;;20.20;82.90;;;;;;5095380;28;20443;-67
2021/07/03 06:33:38;;;;;;;14.80;13.10;;;20.30;82.50;;;;;;5095313;28;20444;-67
2021/07/03 06:36:05;;;;;;;12.63;11.33;;;20.40;82.00;;;;;;5095244;28;20440;-68
2021/07/03 06:38:32;;;;;;;13.93;12.13;;;20.60;81.50;;;;;;5095174;28;20467;-67
2021/07/03 06:40:58;;;;;;;19.87;15.10;;;20.70;80.80;;;;;;5095222;28;20444;-67
2021/07/03 06:43:25;;;;;;;15.00;13.40;;;20.80;79.90;;;;;;5095146;28;20477;-68
2021/07/03 06:45:52;;;;;;;16.40;14.73;;;21.00;79.50;;;;;;5094180;28;20484;-67
2021/07/03 06:48:21;;;;;;;12.40;11.30;;;21.10;78.90;;;;;;5094775;28;20467;-68
2021/07/03 06:50:48;;;;;;;13.10;11.10;;;21.30;78.40;;;;;;5095047;28;20428;-67
2021/07/03 06:53:14;;;;;;;12.13;11.03;;;21.40;77.70;;;;;;5094873;28;20443;-67
2021/07/03 06:55:41;;;;;;;12.90;10.83;;;21.60;77.10;;;;;;5094376;28;20845;-67
2021/07/03 06:58:08;;;;;;;13.07;11.67;;;21.70;76.60;;;;;;5095187;28;20471;-68
2021/07/03 07:00:35;;;;;;;14.20;11.30;;;21.90;75.70;;;;;;5094558;28;20444;-67
2021/07/03 07:03:01;;;;;;;10.93;9.93;;;22.10;75.10;;;;;;5094741;28;20432;-67
2021/07/03 07:05:31;;;;;;;14.13;12.63;;;22.30;75.00;;;;;;5094445;28;20486;-67
2021/07/03 07:07:58;;;;;;;16.97;15.27;;;22.40;74.00;;;;;;5095127;28;20483;-67
2021/07/03 07:10:24;;;;;;;13.97;12.60;;;22.60;72.90;;;;;;5094706;28;20432;-68
2021/07/03 07:12:51;;;;;;;11.53;10.40;;;22.70;72.00;;;;;;5094730;28;20455;-67
2021/07/03 07:15:18;;;;;;;11.27;10.27;;;22.80;72.00;;;;;;5094506;28;20451;-67
2021/07/03 07:17:45;;;;;;;12.83;10.87;;;23.00;71.80;;;;;;5094414;28;20471;-67
2021/07/03 07:20:13;;;;;;;13.07;11.33;;;23.20;70.90;;;;;;5094075;28;20816;-67
2021/07/03 07:22:41;;;;;;;9.77;8.93;;;23.40;70.00;;;;;;5094123;28;20448;-68
2021/07/03 07:25:09;;;;;;;13.10;10.87;;;23.60;69.60;;;;;;5094325;28;20478;-67
2021/07/03 07:27:35;;;;;;;11.50;9.57;;;23.80;68.70;;;;;;5094267;28;20463;-67
2021/07/03 07:30:02;;;;;;;9.50;8.60;;;24.00;68.30;;;;;;5094252;28;20451;-67
2021/07/03 07:32:29;;;;;;;11.23;10.20;;;24.20;67.10;;;;;;5094218;28;20445;-67
2021/07/03 07:34:56;;;;;;;10.13;9.20;;;24.30;64.40;;;;;;5094185;28;20451;-68
2021/07/03 07:37:23;;;;;;;11.37;9.53;;;24.40;64.80;;;;;;5094150;28;20479;-69
2021/07/03 07:39:51;;;;;;;10.30;8.60;;;24.60;65.20;;;;;;5094338;28;20803;-70
2021/07/03 07:42:18;;;;;;;10.30;8.63;;;24.80;64.70;;;;;;5094184;28;20447;-70
2021/07/03 07:44:45;;;;;;;12.03;8.50;;;25.00;63.50;;;;;;5094173;28;20559;-70
2021/07/03 07:47:12;;;;;;;9.63;8.70;;;25.30;62.90;;;;;;5094024;28;20478;-69
2021/07/03 07:49:38;;;;;;;10.90;9.80;;;25.50;62.20;;;;;;5093958;28;20428;-68
2021/07/03 07:52:05;;;;;;;13.53;10.40;;;25.70;61.20;;;;;;5093546;28;20452;-67
2021/07/03 07:54:32;;;;;;;8.47;7.77;;;25.80;58.40;;;;;;5093608;28;20432;-67
2021/07/03 07:57:00;;;;;;;10.10;8.40;;;25.90;58.70;;;;;;5093702;28;20463;-67
2021/07/03 07:59:27;;;;;;;8.00;7.30;;;26.00;58.80;;;;;;5093560;28;20427;-73
2021/07/03 08:01:54;;;;;;;8.23;7.43;;;26.20;59.00;;;;;;5093748;28;20447;-68
2021/07/03 08:04:21;;;;;;;8.00;7.20;;;26.40;58.70;;;;;;5093630;28;20447;-67
2021/07/03 08:06:47;;;;;;;9.30;8.50;;;26.60;58.20;;;;;;5093410;28;20846;-68
2021/07/03 08:09:14;;;;;;;9.07;8.17;;;26.90;56.50;;;;;;5093683;28;20444;-68
2021/07/03 08:11:41;;;;;;;9.03;8.13;;;27.00;56.20;;;;;;5093688;28;20443;-67
2021/07/03 08:14:09;;;;;;;9.87;7.23;;;27.10;55.20;;;;;;5093675;28;20447;-67
2021/07/03 08:16:36;;;;;;;8.70;7.80;;;27.30;54.90;;;;;;5093647;28;20436;-68
2021/07/03 08:19:03;;;;;;;8.07;7.20;;;27.50;54.90;;;;;;5093623;28;20439;-68
2021/07/03 08:21:29;;;;;;;8.63;7.93;;;27.80;54.40;;;;;;5093561;28;20455;-68
2021/07/03 08:23:56;;;;;;;8.20;7.40;;;28.00;54.10;;;;;;5093276;28;20916;-67
2021/07/03 08:26:23;;;;;;;7.13;6.47;;;28.20;54.10;;;;;;5093528;28;20494;-68
2021/07/03 08:28:49;;;;;;;7.33;6.83;;;28.40;51.90;;;;;;5093180;28;20937;-68
2021/07/03 08:31:17;;;;;;;7.77;7.10;;;28.60;52.30;;;;;;5093625;28;20432;-68
2021/07/03 08:33:44;;;;;;;7.97;7.27;;;28.80;51.50;;;;;;5093502;28;20463;-68
2021/07/03 08:36:11;;;;;;;6.70;6.10;;;29.00;51.00;;;;;;5093365;28;20443;-67
2021/07/03 08:38:38;;;;;;;8.70;7.90;;;29.20;51.30;;;;;;5093358;28;20471;-67
2021/07/03 08:41:04;;;;;;;7.60;7.00;;;29.40;51.00;;;;;;5093381;28;20447;-67
2021/07/03 08:43:31;;;;;;;7.90;7.30;;;29.70;50.00;;;;;;5093440;28;20799;-67
2021/07/03 08:45:58;;;;;;;8.33;7.37;;;29.80;49.00;;;;;;5093313;28;20464;-67
2021/07/03 08:48:27;;;;;;;7.80;7.10;;;30.00;47.10;;;;;;5093253;28;20470;-68
2021/07/03 08:50:59;;;;;;;7.00;6.33;;;30.10;47.40;;;;;;5093348;28;20453;-68
2021/07/03 08:53:26;;;;;;;9.00;8.20;;;30.20;45.80;;;;;;5093382;28;20451;-68
2021/07/03 08:55:53;;;;;;;7.60;7.00;;;30.20;46.20;;;;;;5093363;28;20480;-68
2021/07/03 08:58:19;;;;;;;8.17;7.53;;;30.20;46.00;;;;;;5093199;28;20521;-68
2021/07/03 09:00:47;;;;;;;8.00;7.30;;;30.20;44.40;;;;;;5093335;28;20442;-68
2021/07/03 09:03:15;;;;;;;9.03;8.13;;;30.10;45.80;;;;;;5093191;28;20452;-67
2021/07/03 09:05:49;;;;;;;7.77;7.00;;;30.10;44.50;;;;;;5093058;28;20490;-68
2021/07/03 09:08:16;;;;;;;9.80;6.63;;;30.00;46.60;;;;;;5092866;28;20566;-68
2021/07/03 09:10:43;;;;;;;8.87;6.67;;;30.10;46.60;;;;;;5095825;28;20431;-68
2021/07/03 09:13:10;;;;;;;6.70;6.10;;;30.10;44.20;;;;;;5097082;28;20432;-68
2021/07/03 09:15:39;;;;;;;6.70;6.10;;;30.10;44.30;;;;;;5096871;28;20436;-68
2021/07/03 09:18:08;;;;;;;7.47;6.87;;;30.20;45.40;;;;;;5096819;28;20463;-68
2021/07/03 09:20:37;;;;;;;6.93;6.33;;;30.30;45.00;;;;;;5096963;28;20439;-68
2021/07/03 09:23:13;;;;;;;7.53;6.83;;;30.40;43.90;;;;;;5096961;28;20439;-68
2021/07/03 09:25:43;;;;;;;6.27;5.73;;;30.40;42.50;;;;;;5096726;28;20473;-68
2021/07/03 09:28:12;;;;;;;5.27;4.87;;;30.40;43.40;;;;;;5096476;28;20506;-68
2021/07/03 09:30:40;;;;;;;7.00;6.50;;;30.50;43.10;;;;;;5096803;28;20451;-68
2021/07/03 09:33:07;;;;;;;6.90;6.40;;;30.60;42.20;;;;;;5097804;28;20443;-68
2021/07/03 09:35:34;;;;;;;6.30;5.80;;;30.80;43.50;;;;;;5096558;28;20443;-68
2021/07/03 09:38:03;;;;;;;7.10;6.50;;;31.10;40.80;;;;;;5096397;28;20456;-68
2021/07/03 09:40:34;;;;;;;6.50;5.93;;;30.90;39.70;;;;;;5096618;28;20428;-68
2021/07/03 09:43:17;;;;;;;6.73;6.13;;;30.70;40.00;;;;;;5096026;28;20436;-67
2021/07/03 09:45:49;;;;;;;6.03;5.53;;;30.70;43.00;;;;;;5096368;28;20460;-67
2021/07/03 09:48:16;;;;;;;6.83;6.17;;;30.70;40.80;;;;;;5096275;28;20520;-67
2021/07/03 09:50:43;;;;;;;5.57;5.00;;;30.70;41.30;;;;;;5096169;28;20776;-67
2021/07/03 09:53:10;;;;;;;6.70;5.73;;;30.70;42.40;;;;;;5096157;28;20539;-67
2021/07/03 09:55:38;;;;;;;4.63;4.30;;;30.90;42.10;;;;;;5096199;28;20486;-67
2021/07/03 09:58:08;;;;;;;5.67;5.17;;;31.00;39.60;;;;;;5096015;28;20883;-67
2021/07/03 10:00:35;;;;;;;5.67;5.17;;;31.10;39.60;;;;;;5096031;28;20436;-67
2021/07/03 10:03:05;;;;;;;7.20;5.60;;;31.10;39.60;;;;;;5095912;28;20446;-66
2021/07/03 10:05:34;;;;;;;5.40;4.90;;;31.30;40.10;;;;;;5095382;28;20470;-69
2021/07/03 10:08:07;;;;;;;9.20;5.90;;;31.40;38.80;;;;;;5095510;28;20858;-68
2021/07/03 10:10:36;;;;;;;6.10;5.50;;;31.60;37.40;;;;;;5095590;28;20421;-68
2021/07/03 10:13:08;;;;;;;6.80;6.30;;;31.80;39.30;;;;;;5095463;28;21027;-67
2021/07/03 10:15:36;;;;;;;6.07;5.47;;;32.10;37.40;;;;;;5095706;28;20481;-68
2021/07/03 10:18:14;;;;;;;6.17;5.67;;;32.50;36.50;;;;;;5095747;28;20489;-67
2021/07/03 10:20:43;;;;;;;6.30;5.70;;;32.60;35.90;;;;;;5095507;28;20496;-67
2021/07/03 10:23:10;;;;;;;6.67;6.17;;;33.10;36.50;;;;;;5095543;28;20450;-68
2021/07/03 10:25:38;;;;;;;5.33;4.93;;;33.60;35.90;;;;;;5095654;28;20533;-67
2021/07/03 10:28:09;;;;;;;5.37;4.87;;;34.30;34.30;;;;;;5095147;28;20470;-67
2021/07/03 10:30:37;;;;;;;5.80;5.30;;;35.10;32.90;;;;;;5095635;28;20430;-67
2021/07/03 10:33:06;;;;;;;5.83;5.33;;;35.90;32.50;;;;;;5095084;28;20453;-68
2021/07/03 10:35:44;;;;;;;5.77;5.27;;;36.80;30.20;;;;;;5094930;28;20951;-68
2021/07/03 10:38:23;;;;;;;5.53;5.03;;;37.50;28.30;;;;;;5095103;28;20463;-67
2021/07/03 10:40:50;;;;;;;5.63;5.10;;;38.10;28.10;;;;;;5094919;28;20185;-68
2021/07/03 10:43:19;;;;;;;4.80;4.50;;;38.20;27.60;;;;;;5095309;28;20197;-68
2021/07/03 10:45:48;;;;;;;5.30;4.80;;;38.10;27.10;;;;;;5094794;28;20571;-68
2021/07/03 10:48:16;;;;;;;4.70;4.30;;;37.60;27.20;;;;;;5095176;28;20810;-68
2021/07/03 10:50:43;;;;;;;5.93;4.73;;;37.30;28.90;;;;;;5094822;28;20951;-67
2021/07/03 10:53:21;;;;;;;5.40;4.63;;;37.40;28.60;;;;;;5095116;28;20450;-67
2021/07/03 10:55:48;;;;;;;5.43;5.00;;;37.50;27.80;;;;;;5094668;28;20905;-68
2021/07/03 10:58:16;;;;;;;4.90;4.60;;;37.70;27.50;;;;;;5094528;28;20590;-68
2021/07/03 11:00:47;;;;;;;4.07;3.77;;;38.40;26.90;;;;;;5094819;28;20570;-68
2021/07/03 11:03:15;;;;;;;5.07;4.55;;;39.10;26.80;;;;;;5094858;28;20185;-68
2021/07/03 11:05:42;;;;;;;4.50;3.50;;;39.70;25.80;;;;;;5094688;28;20244;-67
2021/07/03 11:08:10;;;;;;;4.40;4.00;;;;;;;;;;5094186;28;20229;-68
2021/07/03 11:10:38;;;;;;;5.57;3.63;;;40.90;39.00;;;;;;5094699;28;20556;-68
2021/07/03 11:13:05;;;;;;;4.50;4.10;;;40.80;28.50;;;;;;5094706;28;20284;-67
2021/07/03 11:15:35;;;;;;;4.00;3.60;;;40.70;23.80;;;;;;5094588;28;20197;-67
2021/07/03 11:18:04;;;;;;;4.57;3.90;;;40.40;22.90;;;;;;5094423;28;20228;-67
2021/07/03 11:20:32;;;;;;;4.43;3.70;;;40.70;23.70;;;;;;5094069;28;20189;-68
2021/07/03 11:22:59;;;;;;;5.22;3.28;;;41.10;22.70;;;;;;5094082;28;20572;-68
2021/07/03 11:25:28;;;;;;;7.43;4.30;;;41.70;21.60;;;;;;5094210;28;20208;-68
2021/07/03 11:28:04;;;;;;;3.50;3.20;;;42.20;20.80;;;;;;5094304;28;20224;-69
2021/07/03 11:30:32;;;;;;;6.93;3.42;;;42.70;21.20;;;;;;5095184;28;20584;-69
2021/07/03 11:33:00;;;;;;;3.10;2.90;;;43.30;21.40;;;;;;5093798;28;20622;-69
2021/07/03 11:35:30;;;;;;;3.50;3.20;;;43.80;21.20;;;;;;5093802;28;20207;-69
2021/07/03 11:37:57;;;;;;;3.22;2.92;;;44.20;20.80;;;;;;5093786;28;20232;-69
2021/07/03 11:40:26;;;;;;;3.35;3.05;;;44.50;20.40;;;;;;5094082;28;20189;-69
2021/07/03 11:42:54;;;;;;;3.58;3.28;;;44.70;18.50;;;;;;5094054;28;20212;-69
2021/07/03 11:45:24;;;;;;;7.85;3.50;;;44.00;18.50;;;;;;5094055;28;20196;-70
2021/07/03 11:47:53;;;;;;;5.95;3.70;;;43.30;20.00;;;;;;5093810;28;20232;-69
2021/07/03 11:50:31;;;;;;;4.00;3.60;;;42.70;20.60;;;;;;5093978;28;20196;-69
2021/07/03 11:53:00;;;;;;;3.70;3.40;;;41.90;21.00;;;;;;5093948;28;20238;-69
2021/07/03 11:55:29;;;;;;;4.45;3.75;;;41.00;22.90;;;;;;5093891;28;20201;-69
2021/07/03 11:57:57;;;;;;;3.60;3.40;;;40.40;23.60;;;;;;5093763;28;20218;-69
2021/07/03 12:00:26;;;;;;;5.55;4.53;;;39.80;23.50;;;;;;5093786;28;20201;-69
2021/07/03 12:02:54;;;;;;;4.82;4.43;;;39.00;24.40;;;;;;5093833;28;20181;-69
2021/07/03 12:05:24;;;;;;;7.43;6.97;;;38.40;26.10;;;;;;5093427;28;20201;-69
2021/07/03 12:08:03;;;;;;;41.17;38.20;;;37.80;26.70;;;;;;5093219;28;20225;-69
2021/07/03 12:10:39;;;;;;;129.90;120.60;;;36.50;26.60;;;;;;5093418;28;20912;-69
2021/07/03 12:13:08;;;;;;;37.03;33.87;;;35.50;29.50;;;;;;5093588;28;20446;-69
2021/07/03 12:15:35;;;;;;;79.30;74.03;;;34.70;28.90;;;;;;5093353;28;20827;-69
2021/07/03 12:18:02;;;;;;;10.23;9.53;;;34.10;30.80;;;;;;5093234;28;20992;-69
2021/07/03 12:20:29;;;;;;;15.77;14.27;;;33.70;31.60;;;;;;5093552;28;20458;-68
2021/07/03 12:23:03;;;;;;;5.70;5.40;;;33.50;31.60;;;;;;5093471;28;20533;-69
2021/07/03 12:25:32;;;;;;;6.23;5.73;;;33.20;30.90;;;;;;5093630;28;20440;-69
2021/07/03 12:28:01;;;;;;;5.13;4.63;;;33.20;32.10;;;;;;5093349;28;20486;-69
2021/07/03 12:30:30;;;;;;;4.50;4.20;;;33.40;33.20;;;;;;5093493;28;20439;-68
2021/07/03 12:33:03;;;;;;;4.30;4.00;;;33.90;33.50;;;;;;5093159;28;20443;-68
2021/07/03 12:35:35;;;;;;;4.87;4.47;;;34.80;31.00;;;;;;5093381;28;20443;-68
2021/07/03 12:38:04;;;;;;;3.93;3.63;;;36.00;30.10;;;;;;5093357;28;20467;-68